LIEE Airport Information

Runway Information
Runway 14 Length 9196 ft width 148 ft
Elevation 9 ft Threshold 0 ft Heading 138
Runway 32 Length 9196 ft Width 148 ft
Elevation 4 ft Threshold 0 ft Heading 318
Airport Frequencies
Type APP Name CAGLIARI A Frequency 118.75 MHZ
Type GND Name Elmas GND Frequency 125.425 MHZ
Type MISC Name SAR Frequency 123.1 MHZ
Type TWR Name TWR Frequency 120.6 MHZ
Airport Navaids
Type VOR-DME Name Cagliari Frequency 113400 KHZ
Type NDB Name Cagliari Frequency 371 KHZ
Airport Weather Information & NOTAM
ADDS - METARS form results

(0636 UTC 24 July 2021)
Data provider http://aviationweather.gov/metar/data/
 
METAR text: LIEE 240620Z 13006KT CAVOK 28/16 Q1013
Conditions at: LIEE (CAGLIARI/ELMAS(A, IT) observed 0620 UTC 24 July 2021
Temperature: 28.0°C (82°F)
Dewpoint: 16.0°C (61°F) [RH = 48%]
Pressure (altimeter): 29.91 inches Hg (1013.0 mb)
Winds: from the SE (130 degrees) at 7 MPH (6 knots; 3.1 m/s)
Visibility: 6 or more miles (10+ km)
Ceiling: ceiling and visibility are OK
Clouds: unknown
Weather: no significant weather observed at this time

METAR text: LIEE 240550Z 12007KT CAVOK 27/17 Q1013
Conditions at: LIEE (CAGLIARI/ELMAS(A, IT) observed 0550 UTC 24 July 2021
Temperature: 27.0°C (81°F)
Dewpoint: 17.0°C (63°F) [RH = 54%]
Pressure (altimeter): 29.91 inches Hg (1013.0 mb)
Winds: from the ESE (120 degrees) at 8 MPH (7 knots; 3.6 m/s)
Visibility: 6 or more miles (10+ km)
Ceiling: ceiling and visibility are OK
Clouds: unknown
Weather: no significant weather observed at this time

Forecast for: LIEE (CAGLIARI/ELMAS(A, IT)
Text: TAF LIEE 240500Z 2406/2506 VRB04KT 9999 FEW040
Forecast period: 0600 to 0800 UTC 24 July 2021
Forecast type: FROM: standard forecast or significant change
Winds: variable direction winds at 5 MPH (4 knots; 2.1 m/s)
Visibility: 6 or more miles (10+ km)
Ceiling: at least 12,000 feet AGL
Clouds: few clouds at 4000 feet AGL
Weather: no significant weather forecast for this period
Text: BECMG 2408/2410 16012KT
Forecast period: 0800 UTC 24 July 2021 to 0600 UTC 25 July 2021
Forecast type: BECOMING: Conditions expected to become as follows by 1000 UTC 24 July 2021
Winds: from the SSE (160 degrees) at 14 MPH (12 knots; 6.2 m/s)
Visibility: 6 or more miles (10+ km)
Ceiling: at least 12,000 feet AGL
Clouds: few clouds at 4000 feet AGL
Weather: no significant weather forecast for this period